BBRO2: Mountain Fork, Broken Bow Rereg

                                SHEF ID:       BBRO2     Mountain Fork Re-regulation Dam
STATION TYPE:

STAGE RIV-FLOW VOLTAGE BAT-LOAD
ft cfs volt volt
Ccp-Rev Ccp-Rev Ccp-Rev Ccp-Rev
(America/Chicago)
04/18 00:00 389.00 263 13.18 12.50
04/18 01:00 388.98 259 13.19 12.50
04/18 02:00 388.94 252 13.17 12.50
04/18 03:00 388.91 247 13.19 12.50
04/18 04:00 388.89 244 13.19 12.51
04/18 05:00 388.89 244 13.19 12.50
04/18 06:00 388.86 238 13.18 12.50
04/18 07:00 388.84 235 13.18 12.47
04/18 08:00 388.83 234 13.19 12.52
04/18 09:00 388.81 230 13.19 12.52
04/18 10:00 388.81 230 13.18 12.47
04/18 11:00 388.79 227 13.17 12.48
04/18 12:00 388.78 225 13.19 12.50
04/18 13:00 388.76 222 13.18 12.40
04/18 14:00 388.76 222 13.18 12.37
04/18 15:00 388.73 218 13.03 12.53
04/18 16:00 388.72 216 13.18 12.53
04/18 17:00 388.71 215 13.17 12.49
04/18 18:00 388.69 212 13.18 12.47
04/18 19:00 388.69 212 13.18 12.46
04/18 20:00 389.04 271 13.19 12.46
04/18 21:00 391.27 1016 13.19 12.46
04/18 22:00 391.25 1009 13.13 12.50
04/18 23:00 391.03 935 13.14 12.50
Data processed at Sun 19Apr2026 04:34 GMT

NOTICE: If you are parsing this page

Please convert to using our Data API. Starting early 2026 we will be migrating to: https://water.usace.army.mil with modern pages rendered in JavaScript. When this migration completes you will no longer be able to scrape this page! CWMSDataAPI (CDA)

Timeseries IDs (TSIDs)

TSIDs used from left to right in the data table
BROM.Stage.Inst.1Hour.0.Ccp-Rev
BROM.Flow.Inst.1Hour.0.Ccp-Rev
BROM.Volt-Battery.Inst.1Hour.0.Ccp-Rev
BROM.Volt-Battery Load.Inst.1Hour.0.Ccp-Rev

                            

All information presented herein is the property of the government of the United States of America and may be revised or deleted at any time without prior notice. Dissemination of this information without the expressed written consent of the Public Affairs Office, Tulsa District U.S. Army Corps of Engineers is strictly prohibited. These data are gathered electronically and, as presented, have NOT undergone any form of quality control. These data are NOT guaranteed to be valid or correct.